Dolphin — WTD6974 — position and weather

sailwx.info

Track history (hours):
 
Tides and Currents Weather Stations Pressure Air Temp Water Temp Dewpoint Dewpoint Depression Visibility Wind Speed Wind Dir Waves Ship Positions

Dolphin

Owner: PENN MARITIME INC, Seattle, WA. More information available from US FCC via Universal Licensing System and Coast Guard Vessel Documentation Center.

Last reported at 2016-Jun-24 23:31 UTC. Time now 2016-Jun-25 12:27 UTC.
Position N 43°07' W 069°10'.

Length 41 m; draft 5.3 m.

Type: Towing. MMSI: 366920980.

Date/timePositionNaut miles runAvg speedWind from/ knotsBaromVisibWave heightAir tempDewpointWater temp
2016-Jun-24 23:31N 43°07' W 069°10'8 8.6
2016-Jun-24 22:33N 43°03' W 069°20'9 8.7
2016-Jun-24 21:33N 42°58' W 069°29'8 8.4
2016-Jun-24 20:33N 42°54' W 069°39'8 8.2
2016-Jun-24 19:33N 42°49' W 069°49'8 8.2
2016-Jun-24 18:33N 42°45' W 069°58'8 7.9
2016-Jun-24 17:33N 42°40' W 070°07'8 7.5
2016-Jun-24 16:33N 42°36' W 070°16'7 7.4
2016-Jun-24 15:33N 42°32' W 070°24'8 7.6
2016-Jun-24 14:33N 42°28' W 070°33'8 7.9
2016-Jun-24 13:33N 42°25' W 070°43'5 5.3
2016-Jun-24 12:33N 42°23' W 070°49'8 7.5
2016-Jun-24 11:33N 42°18' W 070°41'8 8.0
2016-Jun-24 10:33N 42°12' W 070°35'8 7.9
2016-Jun-24 09:33N 42°04' W 070°30'8 8.3
2016-Jun-24 08:33N 41°56' W 070°28'9 7.6
2016-Jun-24 07:26N 41°48' W 070°28'182 7.0
2016-Jun-23 05:33N 40°29' W 074°05'10 1.4
2016-Jun-22 22:31N 40°39' W 074°10'0 0.0
2016-Jun-22 21:33N 40°39' W 074°10'0 0.0
2016-Jun-22 20:31N 40°39' W 074°10'0 0.0
2016-Jun-22 19:15N 40°39' W 074°10'0 0.0
2016-Jun-22 18:31N 40°39' W 074°10'0 0.0
2016-Jun-22 17:29N 40°39' W 074°10'0 0.0
2016-Jun-22 15:31N 40°39' W 074°10'0 0.0
2016-Jun-22 12:28N 40°39' W 074°10'0 0.0
2016-Jun-22 11:33N 40°39' W 074°10'0 0.0
2016-Jun-22 10:31N 40°39' W 074°10'0 0.0
2016-Jun-22 09:11N 40°39' W 074°10'0 0.0
2016-Jun-22 08:30N 40°39' W 074°10'0 0.0
2016-Jun-22 07:31N 40°39' W 074°10'3 0.5
2016-Jun-22 01:34N 40°39' W 074°06'3 2.8
2016-Jun-22 00:31N 40°37' W 074°03'0 0.0
2016-Jun-21 23:30N 40°37' W 074°03'0 0.0
2016-Jun-21 22:26N 40°37' W 074°03'0 0.3
2016-Jun-21 21:32N 40°37' W 074°03'0 0.1
2016-Jun-21 20:26N 40°36' W 074°03'0 0.0
2016-Jun-21 19:26N 40°36' W 074°03'0 0.0
2016-Jun-21 18:23N 40°36' W 074°03'0 0.0
2016-Jun-21 17:26N 40°36' W 074°03'0 0.1
2016-Jun-21 13:14N 40°37' W 074°03'0 0.0
2016-Jun-21 12:32N 40°37' W 074°03'0 0.0
2016-Jun-21 11:17N 40°37' W 074°03'0 0.1
2016-Jun-21 09:23N 40°37' W 074°03'0 0.0
2016-Jun-21 07:20N 40°37' W 074°03'0 0.0
2016-Jun-21 04:32N 40°36' W 074°03'0 0.2
2016-Jun-21 03:32N 40°37' W 074°03'5 4.9
2016-Jun-21 02:34N 40°41' W 074°02'6 6.4
2016-Jun-21 01:34N 40°47' W 073°59'  
2016-Jun-17 06:31N 40°48' W 073°59'6 6.0
2016-Jun-17 05:33N 40°43' W 074°01'6 6.4
2016-Jun-17 04:33N 40°37' W 074°03'2 1.6
2016-Jun-17 03:32N 40°35' W 074°01'0 0.0
2016-Jun-17 02:29N 40°35' W 074°01'0 0.0
2016-Jun-17 01:32N 40°35' W 074°01'0 0.1
2016-Jun-17 00:32N 40°35' W 074°01'0 0.0
2016-Jun-16 23:29N 40°35' W 074°01'0 0.0
2016-Jun-16 22:32N 40°36' W 074°01'1 0.3
2016-Jun-16 20:34N 40°36' W 074°02'7 6.3
2016-Jun-16 19:31N 40°38' W 074°10'0 0.1
2016-Jun-16 18:33N 40°39' W 074°10'0 0.0
2016-Jun-16 17:33N 40°39' W 074°10'0 0.0
2016-Jun-16 16:33N 40°39' W 074°10'0 0.0
2016-Jun-16 15:33N 40°39' W 074°10'0 0.0
2016-Jun-16 14:33N 40°39' W 074°10'0 0.0
2016-Jun-16 13:30N 40°39' W 074°10'0 0.0
2016-Jun-16 12:33N 40°39' W 074°10'0 0.0
2016-Jun-16 11:33N 40°39' W 074°10'0 0.0
2016-Jun-16 10:21N 40°39' W 074°10'0 0.0
2016-Jun-16 09:27N 40°39' W 074°10'0 0.0
2016-Jun-16 06:30N 40°39' W 074°10'0 0.0
2016-Jun-16 05:33N 40°39' W 074°10'0 0.0
2016-Jun-16 04:33N 40°39' W 074°10'0 0.0
2016-Jun-16 02:33N 40°39' W 074°10'0 0.0
2016-Jun-16 01:24N 40°39' W 074°10'0 0.0
2016-Jun-15 23:33N 40°39' W 074°10'0 0.0
2016-Jun-15 22:30N 40°39' W 074°10'0 0.0
2016-Jun-15 21:33N 40°39' W 074°10'0 0.0
2016-Jun-15 20:32N 40°39' W 074°10'1 0.9
2016-Jun-15 19:31N 40°39' W 074°09'6 6.3
2016-Jun-15 18:31N 40°36' W 074°01'1 1.4
2016-Jun-15 17:33N 40°36' W 074°03'9 9.0
2016-Jun-15 16:33N 40°45' W 074°01'2 0.3
2016-Jun-15 07:08N 40°48' W 073°59'4 7.5
2016-Jun-15 06:33N 40°43' W 074°01'4 4.1
2016-Jun-15 05:31N 40°40' W 074°04'0 0.0
2016-Jun-15 04:31N 40°40' W 074°04'0 0.0
2016-Jun-15 03:31N 40°40' W 074°04'0 0.0
2016-Jun-15 02:31N 40°40' W 074°04'0 0.0
2016-Jun-15 01:31N 40°40' W 074°04'0 0.0
2016-Jun-15 00:31N 40°40' W 074°04'  
Track history (hours):
 
Tides and Currents Weather Stations Pressure Air Temp Water Temp Dewpoint Dewpoint Depression Visibility Wind Speed Wind Dir Waves Ship Positions

Dolphin

Owner: PENN MARITIME INC, Seattle, WA. More information available from US FCC via Universal Licensing System and Coast Guard Vessel Documentation Center.

Last reported at 2016-Jun-24 23:31 UTC. Time now 2016-Jun-25 12:27 UTC.
Position N 43°07' W 069°10'.

Length 41 m; draft 5.3 m.

Type: Towing. MMSI: 366920980.

Date/timePositionNaut miles runAvg speedWind from/ knotsBaromVisibWave heightAir tempDewpointWater temp
2016-Jun-24 23:31N 43°07' W 069°10'8 8.6
2016-Jun-24 22:33N 43°03' W 069°20'9 8.7
2016-Jun-24 21:33N 42°58' W 069°29'8 8.4
2016-Jun-24 20:33N 42°54' W 069°39'8 8.2
2016-Jun-24 19:33N 42°49' W 069°49'8 8.2
2016-Jun-24 18:33N 42°45' W 069°58'8 7.9
2016-Jun-24 17:33N 42°40' W 070°07'8 7.5
2016-Jun-24 16:33N 42°36' W 070°16'7 7.4
2016-Jun-24 15:33N 42°32' W 070°24'8 7.6
2016-Jun-24 14:33N 42°28' W 070°33'8 7.9
2016-Jun-24 13:33N 42°25' W 070°43'5 5.3
2016-Jun-24 12:33N 42°23' W 070°49'8 7.5
2016-Jun-24 11:33N 42°18' W 070°41'8 8.0
2016-Jun-24 10:33N 42°12' W 070°35'8 7.9
2016-Jun-24 09:33N 42°04' W 070°30'8 8.3
2016-Jun-24 08:33N 41°56' W 070°28'9 7.6
2016-Jun-24 07:26N 41°48' W 070°28'182 7.0
2016-Jun-23 05:33N 40°29' W 074°05'10 1.4
2016-Jun-22 22:31N 40°39' W 074°10'0 0.0
2016-Jun-22 21:33N 40°39' W 074°10'0 0.0
2016-Jun-22 20:31N 40°39' W 074°10'0 0.0
2016-Jun-22 19:15N 40°39' W 074°10'0 0.0
2016-Jun-22 18:31N 40°39' W 074°10'0 0.0
2016-Jun-22 17:29N 40°39' W 074°10'0 0.0
2016-Jun-22 15:31N 40°39' W 074°10'0 0.0
2016-Jun-22 12:28N 40°39' W 074°10'0 0.0
2016-Jun-22 11:33N 40°39' W 074°10'0 0.0
2016-Jun-22 10:31N 40°39' W 074°10'0 0.0
2016-Jun-22 09:11N 40°39' W 074°10'0 0.0
2016-Jun-22 08:30N 40°39' W 074°10'0 0.0
2016-Jun-22 07:31N 40°39' W 074°10'3 0.5
2016-Jun-22 01:34N 40°39' W 074°06'3 2.8
2016-Jun-22 00:31N 40°37' W 074°03'0 0.0
2016-Jun-21 23:30N 40°37' W 074°03'0 0.0
2016-Jun-21 22:26N 40°37' W 074°03'0 0.3
2016-Jun-21 21:32N 40°37' W 074°03'0 0.1
2016-Jun-21 20:26N 40°36' W 074°03'0 0.0
2016-Jun-21 19:26N 40°36' W 074°03'0 0.0
2016-Jun-21 18:23N 40°36' W 074°03'0 0.0
2016-Jun-21 17:26N 40°36' W 074°03'0 0.1
2016-Jun-21 13:14N 40°37' W 074°03'0 0.0
2016-Jun-21 12:32N 40°37' W 074°03'0 0.0
2016-Jun-21 11:17N 40°37' W 074°03'0 0.1
2016-Jun-21 09:23N 40°37' W 074°03'0 0.0
2016-Jun-21 07:20N 40°37' W 074°03'0 0.0
2016-Jun-21 04:32N 40°36' W 074°03'0 0.2
2016-Jun-21 03:32N 40°37' W 074°03'5 4.9
2016-Jun-21 02:34N 40°41' W 074°02'6 6.4
2016-Jun-21 01:34N 40°47' W 073°59'  
2016-Jun-17 06:31N 40°48' W 073°59'6 6.0
2016-Jun-17 05:33N 40°43' W 074°01'6 6.4
2016-Jun-17 04:33N 40°37' W 074°03'2 1.6
2016-Jun-17 03:32N 40°35' W 074°01'0 0.0
2016-Jun-17 02:29N 40°35' W 074°01'0 0.0
2016-Jun-17 01:32N 40°35' W 074°01'0 0.1
2016-Jun-17 00:32N 40°35' W 074°01'0 0.0
2016-Jun-16 23:29N 40°35' W 074°01'0 0.0
2016-Jun-16 22:32N 40°36' W 074°01'1 0.3
2016-Jun-16 20:34N 40°36' W 074°02'7 6.3
2016-Jun-16 19:31N 40°38' W 074°10'0 0.1
2016-Jun-16 18:33N 40°39' W 074°10'0 0.0
2016-Jun-16 17:33N 40°39' W 074°10'0 0.0
2016-Jun-16 16:33N 40°39' W 074°10'0 0.0
2016-Jun-16 15:33N 40°39' W 074°10'0 0.0
2016-Jun-16 14:33N 40°39' W 074°10'0 0.0
2016-Jun-16 13:30N 40°39' W 074°10'0 0.0
2016-Jun-16 12:33N 40°39' W 074°10'0 0.0
2016-Jun-16 11:33N 40°39' W 074°10'0 0.0
2016-Jun-16 10:21N 40°39' W 074°10'0 0.0
2016-Jun-16 09:27N 40°39' W 074°10'0 0.0
2016-Jun-16 06:30N 40°39' W 074°10'0 0.0
2016-Jun-16 05:33N 40°39' W 074°10'0 0.0
2016-Jun-16 04:33N 40°39' W 074°10'0 0.0
2016-Jun-16 02:33N 40°39' W 074°10'0 0.0
2016-Jun-16 01:24N 40°39' W 074°10'0 0.0
2016-Jun-15 23:33N 40°39' W 074°10'0 0.0
2016-Jun-15 22:30N 40°39' W 074°10'0 0.0
2016-Jun-15 21:33N 40°39' W 074°10'0 0.0
2016-Jun-15 20:32N 40°39' W 074°10'1 0.9
2016-Jun-15 19:31N 40°39' W 074°09'6 6.3
2016-Jun-15 18:31N 40°36' W 074°01'1 1.4
2016-Jun-15 17:33N 40°36' W 074°03'9 9.0
2016-Jun-15 16:33N 40°45' W 074°01'2 0.3
2016-Jun-15 07:08N 40°48' W 073°59'4 7.5
2016-Jun-15 06:33N 40°43' W 074°01'4 4.1
2016-Jun-15 05:31N 40°40' W 074°04'0 0.0
2016-Jun-15 04:31N 40°40' W 074°04'0 0.0
2016-Jun-15 03:31N 40°40' W 074°04'0 0.0
2016-Jun-15 02:31N 40°40' W 074°04'0 0.0
2016-Jun-15 01:31N 40°40' W 074°04'0 0.0
2016-Jun-15 00:31N 40°40' W 074°04'  

Dump ship's entire track history